createdAt,value
2018-10-06T00:00:23.042Z,1000.99
2018-10-06T00:01:23.028Z,1000.95
2018-10-06T00:02:23.043Z,1001.03
2018-10-06T00:03:23.010Z,1001.00
2018-10-06T00:04:22.993Z,1001.06
2018-10-06T00:05:22.984Z,1001.00
2018-10-06T00:06:22.975Z,1001.03
2018-10-06T00:07:22.956Z,1000.98
2018-10-06T00:08:22.973Z,1000.97
2018-10-06T00:09:22.938Z,1000.97
2018-10-06T00:10:22.922Z,1001.00
2018-10-06T00:11:22.915Z,1001.00
2018-10-06T00:12:22.902Z,1000.99
2018-10-06T00:13:22.888Z,1001.01
2018-10-06T00:14:22.909Z,1000.96
2018-10-06T00:15:22.864Z,1000.96
2018-10-06T00:16:22.858Z,1000.95
2018-10-06T00:17:22.843Z,1000.89
2018-10-06T00:18:22.834Z,1000.92
2018-10-06T00:19:22.815Z,1000.90
2018-10-06T00:20:22.838Z,1000.89
2018-10-06T00:21:22.795Z,1000.89
2018-10-06T00:22:22.789Z,1000.87
2018-10-06T00:23:22.776Z,1000.91
2018-10-06T00:24:22.760Z,1000.86
2018-10-06T00:25:22.753Z,1000.89
2018-10-06T00:26:22.761Z,1000.88
2018-10-06T00:27:22.725Z,1000.88
2018-10-06T00:28:22.719Z,1000.83
2018-10-06T00:29:22.700Z,1000.86
2018-10-06T00:30:22.696Z,1000.85
2018-10-06T00:31:22.699Z,1000.82
2018-10-06T00:32:22.670Z,1000.83
2018-10-06T00:33:22.661Z,1000.77
2018-10-06T00:34:22.639Z,1000.75
2018-10-06T00:35:22.637Z,1000.75
2018-10-06T00:36:22.655Z,1000.73
2018-10-06T00:37:22.605Z,1000.73
2018-10-06T00:38:22.595Z,1000.72
2018-10-06T00:39:22.581Z,1000.70
2018-10-06T00:40:22.578Z,1000.70
2018-10-06T00:41:22.558Z,1000.70
2018-10-06T00:42:22.578Z,1000.71
2018-10-06T00:43:22.540Z,1000.67
2018-10-06T00:44:22.522Z,1000.64
2018-10-06T00:45:22.520Z,1000.66
2018-10-06T00:46:22.499Z,1000.65
2018-10-06T00:47:22.594Z,1000.66
2018-10-06T00:48:22.510Z,1000.63
2018-10-06T00:49:22.471Z,1000.63
2018-10-06T00:50:22.495Z,1000.61
2018-10-06T00:51:22.441Z,1000.60
2018-10-06T00:52:22.436Z,1000.60
2018-10-06T00:53:22.420Z,1000.56
2018-10-06T00:54:22.437Z,1000.63
2018-10-06T00:55:22.402Z,1000.56
2018-10-06T00:56:22.383Z,1000.59
2018-10-06T00:57:22.380Z,1000.56
2018-10-06T00:58:22.365Z,1000.54
2018-10-06T00:59:22.352Z,1000.56
2018-10-06T01:00:22.378Z,1000.60
2018-10-06T01:01:22.326Z,1000.55
2018-10-06T01:02:22.334Z,1000.59
2018-10-06T01:03:22.306Z,1000.57
2018-10-06T01:04:22.296Z,1000.58
2018-10-06T01:05:22.284Z,1000.60
2018-10-06T01:06:22.313Z,1000.56
2018-10-06T01:07:22.264Z,1000.54
2018-10-06T01:08:22.246Z,1000.57
2018-10-06T01:09:22.237Z,1000.58
2018-10-06T01:10:22.230Z,1000.57
2018-10-06T01:11:22.207Z,1000.50
2018-10-06T01:12:22.227Z,1000.48
2018-10-06T01:13:22.186Z,1000.51
2018-10-06T01:14:22.176Z,1000.50
2018-10-06T01:15:22.169Z,1000.46
2018-10-06T01:16:22.178Z,1000.45
2018-10-06T01:17:22.148Z,1000.45
2018-10-06T01:18:22.132Z,1000.42
2018-10-06T01:19:22.120Z,1000.40
2018-10-06T01:20:22.118Z,1000.38
2018-10-06T01:21:22.104Z,1000.36
2018-10-06T01:22:22.119Z,1000.42
2018-10-06T01:23:22.069Z,1000.40
2018-10-06T01:24:22.062Z,1000.43
2018-10-06T01:25:22.050Z,1000.41
2018-10-06T01:26:22.038Z,1000.43
2018-10-06T01:27:22.028Z,1000.38
2018-10-06T01:28:22.039Z,1000.39
2018-10-06T01:29:22.003Z,1000.37
2018-10-06T01:30:21.987Z,1000.35
2018-10-06T01:31:21.984Z,1000.29
2018-10-06T01:32:21.967Z,1000.34
2018-10-06T01:33:21.980Z,1000.25
2018-10-06T01:34:21.949Z,1000.32
2018-10-06T01:35:21.929Z,1000.26
2018-10-06T01:36:21.923Z,1000.28
2018-10-06T01:37:21.914Z,1000.16
2018-10-06T01:38:21.924Z,1000.24
2018-10-06T01:39:21.894Z,1000.24
2018-10-06T01:40:21.879Z,1000.24
2018-10-06T01:41:21.859Z,1000.23
2018-10-06T01:42:21.851Z,1000.26
2018-10-06T01:43:21.834Z,1000.21
2018-10-06T01:44:21.868Z,1000.21
2018-10-06T01:45:21.813Z,1000.22
2018-10-06T01:46:21.811Z,1000.22
2018-10-06T01:47:21.789Z,1000.18
2018-10-06T01:48:21.776Z,1000.21
2018-10-06T01:49:21.775Z,1000.20
2018-10-06T01:50:21.776Z,1000.18
2018-10-06T01:51:21.752Z,1000.22
2018-10-06T01:52:21.731Z,1000.20
2018-10-06T01:53:21.728Z,1000.17
2018-10-06T01:54:21.708Z,1000.12
2018-10-06T01:55:21.736Z,1000.15
2018-10-06T01:56:21.693Z,1000.10
2018-10-06T01:57:21.673Z,1000.08
2018-10-06T01:58:21.671Z,1000.07
2018-10-06T01:59:21.649Z,1000.02
2018-10-06T02:00:21.641Z,1000.05
2018-10-06T02:01:21.654Z,1000.05
2018-10-06T02:02:21.617Z,1000.00
2018-10-06T02:03:21.602Z,1000.00
2018-10-06T02:04:21.598Z,1000.02
2018-10-06T02:05:21.590Z,999.94
2018-10-06T02:06:21.596Z,999.98
2018-10-06T02:07:21.561Z,999.99
2018-10-06T02:08:21.556Z,999.96
2018-10-06T02:09:21.532Z,999.98
2018-10-06T02:10:21.532Z,999.96
2018-10-06T02:11:21.541Z,1000.03
2018-10-06T02:12:21.497Z,1000.03
2018-10-06T02:13:21.494Z,999.97
2018-10-06T02:14:21.474Z,999.99
2018-10-06T02:15:21.473Z,1000.00
2018-10-06T02:16:21.457Z,999.97
2018-10-06T02:17:21.476Z,999.97
2018-10-06T02:18:21.434Z,999.98
2018-10-06T02:19:21.425Z,999.96
2018-10-06T02:20:21.405Z,999.96
2018-10-06T02:21:21.394Z,999.96
2018-10-06T02:22:21.385Z,999.92
2018-10-06T02:23:21.398Z,999.88
2018-10-06T02:24:21.358Z,999.91
2018-10-06T02:25:21.355Z,999.87
2018-10-06T02:26:21.347Z,999.81
2018-10-06T02:27:21.328Z,999.83
2018-10-06T02:28:21.346Z,999.80
2018-10-06T02:29:21.299Z,999.79
2018-10-06T02:30:21.292Z,999.79
2018-10-06T02:31:21.285Z,999.76
2018-10-06T02:32:21.268Z,999.75
2018-10-06T02:33:21.254Z,999.74
2018-10-06T02:34:21.278Z,999.68
2018-10-06T02:35:21.237Z,999.74
2018-10-06T02:36:21.222Z,999.78
2018-10-06T02:37:21.219Z,999.77
2018-10-06T02:38:21.196Z,999.75
2018-10-06T02:39:21.186Z,999.75
2018-10-06T02:40:21.203Z,999.75
2018-10-06T02:41:21.161Z,999.73
2018-10-06T02:42:21.154Z,999.73
2018-10-06T02:43:21.148Z,999.72
2018-10-06T02:44:21.127Z,999.76
2018-10-06T02:45:21.155Z,999.76
2018-10-06T02:46:21.109Z,999.77
2018-10-06T02:47:21.095Z,999.74
2018-10-06T02:48:21.086Z,999.66
2018-10-06T02:49:21.074Z,999.74
2018-10-06T02:50:21.064Z,999.71
2018-10-06T02:51:21.078Z,999.72
2018-10-06T02:52:21.036Z,999.68
2018-10-06T02:53:21.021Z,999.73
2018-10-06T02:54:21.020Z,999.68
2018-10-06T02:55:21.005Z,999.70
2018-10-06T02:56:20.993Z,999.77
2018-10-06T02:57:21.008Z,999.69
2018-10-06T02:58:20.970Z,999.73
2018-10-06T02:59:20.956Z,999.66
2018-10-06T03:00:20.949Z,999.65
2018-10-06T03:01:20.935Z,999.64
2018-10-06T03:02:20.922Z,999.72
2018-10-06T03:03:20.943Z,999.66
2018-10-06T03:04:20.898Z,999.66
2018-10-06T03:05:20.889Z,999.66
2018-10-06T03:06:20.876Z,999.71
2018-10-06T03:07:20.861Z,999.68
2018-10-06T03:08:20.854Z,999.65
2018-10-06T03:09:20.875Z,999.70
2018-10-06T03:10:20.835Z,999.65
2018-10-06T03:11:20.815Z,999.63
2018-10-06T03:12:20.804Z,999.63
2018-10-06T03:13:20.794Z,999.58
2018-10-06T03:14:20.786Z,999.57
2018-10-06T03:15:20.796Z,999.61
2018-10-06T03:16:20.760Z,999.60
2018-10-06T03:17:20.746Z,999.57
2018-10-06T03:18:20.733Z,999.57
2018-10-06T03:19:20.729Z,999.56
2018-10-06T03:20:20.715Z,999.57
2018-10-06T03:21:20.729Z,999.60
2018-10-06T03:22:20.691Z,999.56
2018-10-06T03:23:20.681Z,999.52
2018-10-06T03:24:20.664Z,999.60
2018-10-06T03:25:20.659Z,999.57
2018-10-06T03:26:20.640Z,999.52
2018-10-06T03:27:20.662Z,999.50
2018-10-06T03:28:20.622Z,999.52
2018-10-06T03:29:20.605Z,999.49
2018-10-06T03:30:20.594Z,999.49
2018-10-06T03:31:20.590Z,999.47
2018-10-06T03:32:20.575Z,999.48
2018-10-06T03:33:20.594Z,999.45
2018-10-06T03:34:20.556Z,999.46
2018-10-06T03:35:20.537Z,999.39
2018-10-06T03:36:20.527Z,999.40
2018-10-06T03:37:20.518Z,999.36
2018-10-06T03:38:20.506Z,999.39
2018-10-06T03:39:20.524Z,999.46
2018-10-06T03:40:20.481Z,999.38
2018-10-06T03:41:20.472Z,999.41
2018-10-06T03:42:20.450Z,999.41
2018-10-06T03:43:20.443Z,999.33
2018-10-06T03:44:20.438Z,999.37
2018-10-06T03:45:20.439Z,999.34
2018-10-06T03:46:20.417Z,999.34
2018-10-06T03:47:20.394Z,999.34
2018-10-06T03:48:20.389Z,999.33
2018-10-06T03:49:20.387Z,999.30
2018-10-06T03:50:20.382Z,999.35
2018-10-06T03:51:20.356Z,999.28
2018-10-06T03:52:20.341Z,999.25
2018-10-06T03:53:20.329Z,999.25
2018-10-06T03:54:20.312Z,999.18
2018-10-06T03:55:20.328Z,999.20
2018-10-06T03:56:20.294Z,999.20
2018-10-06T03:57:20.277Z,999.17
2018-10-06T03:58:20.275Z,999.18
2018-10-06T03:59:20.254Z,999.12
2018-10-06T04:00:20.270Z,999.15
2018-10-06T04:01:20.234Z,999.11
2018-10-06T04:02:20.220Z,999.09
2018-10-06T04:03:20.217Z,999.10
2018-10-06T04:04:20.199Z,999.11
2018-10-06T04:05:20.211Z,999.06
2018-10-06T04:06:20.183Z,999.04
2018-10-06T04:07:20.161Z,999.05
2018-10-06T04:08:20.159Z,999.03
2018-10-06T04:09:20.141Z,999.11
2018-10-06T04:10:20.152Z,999.03
2018-10-06T04:11:20.114Z,999.07
2018-10-06T04:12:20.105Z,999.00
2018-10-06T04:13:20.101Z,999.03
2018-10-06T04:14:20.085Z,999.00
2018-10-06T04:15:20.094Z,998.98
2018-10-06T04:16:20.064Z,998.96
2018-10-06T04:17:20.043Z,998.94
2018-10-06T04:18:20.041Z,998.98
2018-10-06T04:19:20.020Z,998.94
2018-10-06T04:20:20.031Z,998.87
2018-10-06T04:21:20.006Z,998.86
2018-10-06T04:22:19.986Z,998.89
2018-10-06T04:23:19.982Z,998.82
2018-10-06T04:24:19.968Z,998.80
2018-10-06T04:25:19.973Z,998.83
2018-10-06T04:26:19.943Z,998.77
2018-10-06T04:27:19.934Z,998.79
2018-10-06T04:28:19.964Z,998.78
2018-10-06T04:29:19.903Z,998.76
2018-10-06T04:30:19.915Z,998.74
2018-10-06T04:31:19.884Z,998.71
2018-10-06T04:32:19.866Z,998.71
2018-10-06T04:33:19.863Z,998.74
2018-10-06T04:34:19.848Z,998.76
2018-10-06T04:35:19.856Z,998.75
2018-10-06T04:36:19.829Z,998.73
2018-10-06T04:37:19.808Z,998.70
2018-10-06T04:38:19.799Z,998.76
2018-10-06T04:39:19.790Z,998.69
2018-10-06T04:40:19.799Z,998.68
2018-10-06T04:41:19.767Z,998.70
2018-10-06T04:42:19.757Z,998.65
2018-10-06T04:43:19.737Z,998.64
2018-10-06T04:44:19.733Z,998.66
2018-10-06T04:45:19.739Z,998.67
2018-10-06T04:46:19.701Z,998.69
2018-10-06T04:47:19.699Z,998.70
2018-10-06T04:48:19.688Z,998.71
2018-10-06T04:49:19.665Z,998.70
2018-10-06T04:50:19.678Z,998.70
2018-10-06T04:51:19.648Z,998.68
2018-10-06T04:52:19.628Z,998.72
2018-10-06T04:53:19.657Z,998.69
2018-10-06T04:54:19.611Z,998.64
2018-10-06T04:55:19.619Z,998.66
2018-10-06T04:56:19.588Z,998.59
2018-10-06T04:57:19.574Z,998.69
2018-10-06T04:58:19.558Z,998.61
2018-10-06T04:59:19.555Z,998.59
2018-10-06T05:00:19.575Z,998.62
2018-10-06T05:01:19.528Z,998.65
2018-10-06T05:02:19.519Z,998.63
2018-10-06T05:03:19.562Z,998.62
2018-10-06T05:04:19.486Z,998.57
2018-10-06T05:05:19.505Z,998.56
2018-10-06T05:06:19.468Z,998.51
2018-10-06T05:07:19.456Z,998.52
2018-10-06T05:08:19.445Z,998.50
2018-10-06T05:09:19.426Z,998.44
2018-10-06T05:10:19.440Z,998.50
2018-10-06T05:11:19.407Z,998.45
2018-10-06T05:12:19.399Z,998.46
2018-10-06T05:13:19.379Z,998.44
2018-10-06T05:14:19.369Z,998.44
2018-10-06T05:15:19.374Z,998.50
2018-10-06T05:16:19.340Z,998.47
2018-10-06T05:17:19.333Z,998.49
2018-10-06T05:18:19.319Z,998.44
2018-10-06T05:19:19.316Z,998.45
2018-10-06T05:20:19.330Z,998.45
2018-10-06T05:21:19.287Z,998.43
2018-10-06T05:22:19.277Z,998.43
2018-10-06T05:23:19.301Z,998.43
2018-10-06T05:24:19.251Z,998.43
2018-10-06T05:25:19.266Z,998.41
2018-10-06T05:26:19.228Z,998.43
2018-10-06T05:27:19.217Z,998.42
2018-10-06T05:28:19.206Z,998.39
2018-10-06T05:29:19.192Z,998.39
2018-10-06T05:30:19.202Z,998.42
2018-10-06T05:31:19.172Z,998.40
2018-10-06T05:32:19.153Z,998.37
2018-10-06T05:33:19.140Z,998.41
2018-10-06T05:34:19.135Z,998.40
2018-10-06T05:35:19.137Z,998.35
2018-10-06T05:36:19.110Z,998.38
2018-10-06T05:37:19.095Z,998.37
2018-10-06T05:38:19.079Z,998.35
2018-10-06T05:39:19.077Z,998.35
2018-10-06T05:40:19.081Z,998.35
2018-10-06T05:41:19.049Z,998.39
2018-10-06T05:42:19.042Z,998.34
2018-10-06T05:43:19.019Z,998.37
2018-10-06T05:44:19.010Z,998.33
2018-10-06T05:45:19.024Z,998.36
2018-10-06T05:46:18.998Z,998.34
2018-10-06T05:47:18.972Z,998.34
2018-10-06T05:48:18.965Z,998.38
2018-10-06T05:49:18.950Z,998.33
2018-10-06T05:50:18.957Z,998.36
2018-10-06T05:51:18.932Z,998.36
2018-10-06T05:52:18.913Z,998.34
2018-10-06T05:53:18.904Z,998.39
2018-10-06T05:54:18.890Z,998.39
2018-10-06T05:55:18.903Z,998.40
2018-10-06T05:56:18.870Z,998.34
2018-10-06T05:57:18.855Z,998.37
2018-10-06T05:58:18.845Z,998.40
2018-10-06T05:59:18.830Z,998.33
2018-10-06T06:00:18.842Z,998.38
2018-10-06T06:01:18.806Z,998.33
2018-10-06T06:02:18.791Z,998.35
2018-10-06T06:03:18.788Z,998.37
2018-10-06T06:04:18.769Z,998.39
2018-10-06T06:05:18.784Z,998.35
2018-10-06T06:06:18.752Z,998.36
2018-10-06T06:07:18.730Z,998.37
2018-10-06T06:08:18.727Z,998.39
2018-10-06T06:09:18.760Z,998.42
2018-10-06T06:10:18.728Z,998.39
2018-10-06T06:11:18.692Z,998.41
2018-10-06T06:12:18.671Z,998.43
2018-10-06T06:13:18.668Z,998.47
2018-10-06T06:14:18.654Z,998.44
2018-10-06T06:15:18.638Z,998.38
2018-10-06T06:16:18.646Z,998.41
2018-10-06T06:17:18.619Z,998.44
2018-10-06T06:18:18.605Z,998.42
2018-10-06T06:19:18.597Z,998.40
2018-10-06T06:20:18.583Z,998.48
2018-10-06T06:21:18.600Z,998.46
2018-10-06T06:22:18.553Z,998.52
2018-10-06T06:23:18.545Z,998.45
2018-10-06T06:24:18.532Z,998.46
2018-10-06T06:25:18.516Z,998.50
2018-10-06T06:26:18.507Z,998.56
2018-10-06T06:27:18.537Z,998.49
2018-10-06T06:28:18.481Z,998.50
2018-10-06T06:29:18.471Z,998.50
2018-10-06T06:30:18.459Z,998.50
2018-10-06T06:31:18.461Z,998.46
2018-10-06T06:32:18.541Z,998.48
2018-10-06T06:33:18.454Z,998.48
2018-10-06T06:34:18.411Z,998.48
2018-10-06T06:35:18.394Z,998.50
2018-10-06T06:36:18.382Z,998.46
2018-10-06T06:37:18.373Z,998.46
2018-10-06T06:38:18.421Z,998.47
2018-10-06T06:39:18.350Z,998.44
2018-10-06T06:40:18.343Z,998.45
2018-10-06T06:41:18.323Z,998.43
2018-10-06T06:42:18.321Z,998.42
2018-10-06T06:43:18.322Z,998.41
2018-10-06T06:44:18.572Z,998.39
2018-10-06T06:45:18.422Z,998.35
2018-10-06T06:46:18.313Z,998.37
2018-10-06T06:47:18.300Z,998.35
2018-10-06T06:48:18.408Z,998.38
2018-10-06T06:49:18.239Z,998.36
2018-10-06T06:50:18.223Z,998.39
2018-10-06T06:51:18.348Z,998.33
2018-10-06T06:52:18.206Z,998.36
2018-10-06T06:53:18.338Z,998.39
2018-10-06T06:54:18.204Z,998.26
2018-10-06T06:55:18.267Z,998.23
2018-10-06T06:56:18.147Z,998.26
2018-10-06T06:57:18.144Z,998.22
2018-10-06T06:58:18.152Z,998.22
2018-10-06T06:59:18.115Z,998.32
2018-10-06T07:00:18.109Z,998.41
2018-10-06T07:01:18.090Z,998.45
2018-10-06T07:02:18.080Z,998.41
2018-10-06T07:03:18.094Z,998.44
2018-10-06T07:04:18.064Z,998.39
2018-10-06T07:05:18.042Z,998.41
2018-10-06T07:06:18.039Z,998.40
2018-10-06T07:07:15.773Z,998.14
2018-10-06T07:08:15.787Z,998.41
2018-10-06T07:09:15.743Z,998.39
2018-10-06T07:10:15.736Z,998.33
2018-10-06T07:11:15.719Z,998.38
2018-10-06T07:12:15.704Z,998.39
2018-10-06T07:13:15.723Z,998.30
2018-10-06T07:14:15.688Z,998.41
2018-10-06T07:15:15.674Z,998.35
2018-10-06T07:16:15.668Z,998.05
2018-10-06T07:17:15.655Z,998.36
2018-10-06T07:18:15.666Z,998.33
2018-10-06T07:19:15.629Z,998.32
2018-10-06T07:20:15.615Z,998.33
2018-10-06T07:21:15.606Z,998.34
2018-10-06T07:22:15.593Z,998.39
2018-10-06T07:23:15.606Z,998.39
2018-10-06T07:24:15.570Z,998.35
2018-10-06T07:25:15.613Z,998.34
2018-10-06T07:26:15.547Z,998.35
2018-10-06T07:27:15.534Z,998.33
2018-10-06T07:28:15.543Z,998.31
2018-10-06T07:33:19.286Z,998.37
2018-10-06T07:34:19.257Z,998.36
2018-10-06T07:35:19.245Z,998.32
2018-10-06T07:36:19.225Z,998.36
2018-10-06T07:37:19.223Z,998.35
2018-10-06T07:38:19.224Z,998.37
2018-10-06T07:39:19.190Z,998.33
2018-10-06T07:40:19.185Z,998.36
2018-10-06T07:41:19.168Z,998.39
2018-10-06T07:42:19.165Z,998.35
2018-10-06T07:43:19.173Z,998.35
2018-10-06T07:44:19.143Z,998.31
2018-10-06T07:45:19.123Z,998.34
2018-10-06T07:46:19.122Z,998.34
2018-10-06T07:47:19.103Z,998.39
2018-10-06T07:48:19.118Z,998.44
2018-10-06T07:49:19.086Z,998.43
2018-10-06T07:50:19.076Z,998.39
2018-10-06T07:51:19.056Z,998.42
2018-10-06T07:52:19.053Z,998.36
2018-10-06T07:53:19.061Z,998.41
2018-10-06T07:54:19.024Z,998.41
2018-10-06T07:55:19.019Z,998.38
2018-10-06T07:56:18.999Z,998.36
2018-10-06T07:57:18.991Z,998.36
2018-10-06T07:58:19.078Z,998.34
2018-10-06T07:59:19.037Z,998.35
2018-10-06T08:00:18.956Z,998.40
2018-10-06T08:01:18.981Z,998.34
2018-10-06T08:02:18.938Z,998.33
2018-10-06T08:03:18.949Z,998.39
2018-10-06T08:04:18.921Z,998.32
2018-10-06T08:05:18.906Z,998.29
2018-10-06T08:06:18.911Z,998.26
2018-10-06T08:07:18.891Z,998.25
2018-10-06T08:08:18.899Z,998.25
2018-10-06T08:09:18.862Z,998.30
2018-10-06T08:10:18.850Z,998.25
2018-10-06T08:11:18.837Z,998.23
2018-10-06T08:12:18.834Z,998.22
2018-10-06T08:13:18.820Z,998.29
2018-10-06T08:14:18.832Z,998.21
2018-10-06T08:15:18.795Z,998.19
2018-10-06T08:16:18.795Z,998.20
2018-10-06T08:17:18.767Z,998.19
2018-10-06T08:18:18.772Z,998.18
2018-10-06T08:19:18.754Z,998.22
2018-10-06T08:20:18.773Z,998.23
2018-10-06T08:21:18.733Z,998.25
2018-10-06T08:22:18.721Z,998.17
2018-10-06T08:23:18.707Z,998.20
2018-10-06T08:24:18.705Z,998.20
2018-10-06T08:25:18.679Z,998.22
2018-10-06T08:26:18.700Z,998.23
2018-10-06T08:27:18.672Z,998.28
2018-10-06T08:28:18.647Z,998.28
2018-10-06T08:29:18.645Z,998.25
2018-10-06T08:30:18.628Z,998.27
2018-10-06T08:31:18.647Z,998.33
2018-10-06T08:32:18.612Z,998.28
2018-10-06T08:33:18.603Z,998.22
2018-10-06T08:34:18.585Z,998.25
2018-10-06T08:35:18.573Z,998.29
2018-10-06T08:36:18.592Z,998.25
2018-10-06T08:37:18.554Z,998.25
2018-10-06T08:38:18.545Z,998.29
2018-10-06T08:39:18.543Z,998.34
2018-10-06T08:40:18.523Z,998.28
2018-10-06T08:41:18.547Z,998.29
2018-10-06T08:42:18.503Z,998.26
2018-10-06T08:43:18.492Z,998.27
2018-10-06T08:44:18.492Z,998.25
2018-10-06T08:45:18.467Z,998.27
2018-10-06T08:46:18.494Z,998.25
2018-10-06T08:47:18.446Z,998.15
2018-10-06T08:48:18.442Z,998.15
2018-10-06T08:49:18.425Z,998.18
2018-10-06T08:50:18.425Z,998.08
2018-10-06T08:51:18.439Z,997.72
2018-10-06T08:52:18.400Z,998.11
2018-10-06T08:53:18.392Z,998.12
2018-10-06T08:54:18.379Z,998.13
2018-10-06T08:55:18.363Z,998.11
2018-10-06T08:56:18.539Z,998.07
2018-10-06T08:57:18.348Z,998.11
2018-10-06T08:58:18.335Z,997.62
2018-10-06T08:59:18.330Z,998.02
2018-10-06T09:00:18.309Z,998.04
2018-10-06T09:01:18.322Z,998.05
2018-10-06T09:02:18.293Z,998.01
2018-10-06T09:03:18.283Z,998.02
2018-10-06T09:04:18.292Z,997.97
2018-10-06T09:05:18.260Z,997.99
2018-10-06T09:06:18.272Z,997.99
2018-10-06T09:07:18.235Z,997.99
2018-10-06T09:08:18.227Z,997.96
2018-10-06T09:09:18.220Z,997.91
2018-10-06T09:10:18.211Z,997.90
2018-10-06T09:11:18.222Z,997.92
2018-10-06T09:12:18.182Z,997.88
2018-10-06T09:13:18.177Z,997.92
2018-10-06T09:14:18.168Z,997.90
2018-10-06T09:15:18.149Z,997.86
2018-10-06T09:16:18.171Z,997.84
2018-10-06T09:17:18.137Z,997.84
2018-10-06T09:18:18.123Z,997.82
2018-10-06T09:19:18.106Z,997.84
2018-10-06T09:20:18.098Z,997.84
2018-10-06T09:21:18.153Z,997.83
2018-10-06T09:22:18.077Z,997.82
2018-10-06T09:23:18.073Z,997.80
2018-10-06T09:24:18.055Z,997.80
2018-10-06T09:25:18.048Z,997.81
2018-10-06T09:26:18.060Z,997.76
2018-10-06T09:27:18.033Z,997.81
2018-10-06T09:28:18.033Z,997.77
2018-10-06T09:29:18.006Z,997.76
2018-10-06T09:30:18.004Z,997.74
2018-10-06T09:31:18.013Z,997.73
2018-10-06T09:32:17.980Z,997.70
2018-10-06T09:33:17.973Z,997.15
2018-10-06T09:34:17.955Z,997.69
2018-10-06T09:35:17.953Z,997.69
2018-10-06T09:36:17.961Z,997.64
2018-10-06T09:37:17.924Z,997.61
2018-10-06T09:38:17.916Z,997.68
2018-10-06T09:39:17.899Z,997.68
2018-10-06T09:40:17.905Z,997.66
2018-10-06T09:41:17.905Z,997.65
2018-10-06T09:42:18.042Z,997.56
2018-10-06T09:43:17.869Z,997.58
2018-10-06T09:44:17.846Z,997.63
2018-10-06T09:45:17.941Z,997.57
2018-10-06T09:46:17.968Z,997.68
2018-10-06T09:47:17.816Z,997.58
2018-10-06T09:48:19.257Z,997.57
2018-10-06T09:49:17.795Z,997.53
2018-10-06T09:50:18.552Z,997.53
2018-10-06T09:51:17.797Z,997.51
2018-10-06T09:52:17.768Z,997.50
2018-10-06T09:53:18.196Z,997.53
2018-10-06T09:54:17.748Z,997.46
2018-10-06T09:55:17.819Z,997.43
2018-10-06T09:56:17.746Z,997.46
2018-10-06T09:57:17.718Z,997.52
2018-10-06T09:58:18.564Z,997.50
2018-10-06T09:59:17.757Z,997.43
2018-10-06T10:00:17.690Z,997.49
2018-10-06T10:01:17.698Z,997.39
2018-10-06T10:02:17.676Z,997.53
2018-10-06T10:03:17.666Z,997.50
2018-10-06T10:04:17.651Z,997.53
2018-10-06T10:05:17.664Z,997.48
2018-10-06T10:06:17.649Z,997.33
2018-10-06T10:07:18.556Z,997.34
2018-10-06T10:08:17.680Z,997.36
2018-10-06T10:09:17.609Z,997.35
2018-10-06T10:10:17.595Z,997.42
2018-10-06T10:11:17.604Z,997.33
2018-10-06T10:12:17.570Z,997.32
2018-10-06T10:13:17.557Z,997.30
2018-10-06T10:14:17.556Z,997.40
2018-10-06T10:15:17.645Z,997.40
2018-10-06T10:16:17.552Z,997.40
2018-10-06T10:17:17.731Z,997.34
2018-10-06T10:18:17.638Z,997.37
2018-10-06T10:19:17.498Z,997.32
2018-10-06T10:20:17.484Z,997.32
2018-10-06T10:21:17.494Z,997.27
2018-10-06T10:22:17.596Z,997.28
2018-10-06T10:23:17.840Z,997.34
2018-10-06T10:24:17.443Z,997.29
2018-10-06T10:25:17.435Z,997.36
2018-10-06T10:26:17.448Z,997.30
2018-10-06T10:27:17.513Z,997.34
2018-10-06T10:28:17.416Z,997.35
2018-10-06T10:29:17.390Z,997.27
2018-10-06T10:30:17.436Z,997.35
2018-10-06T10:31:17.391Z,996.87
2018-10-06T10:32:17.361Z,997.27
2018-10-06T10:33:17.346Z,997.28
2018-10-06T10:34:17.353Z,997.34
2018-10-06T10:35:17.331Z,997.32
2018-10-06T10:36:17.344Z,997.27
2018-10-06T10:37:17.345Z,997.26
2018-10-06T10:38:17.296Z,997.20
2018-10-06T10:39:17.385Z,997.19
2018-10-06T10:40:17.276Z,997.25
2018-10-06T10:41:18.210Z,997.26
2018-10-06T10:42:17.585Z,997.21
2018-10-06T10:43:17.247Z,997.13
2018-10-06T10:44:17.250Z,997.13
2018-10-06T10:45:17.227Z,997.13
2018-10-06T10:46:17.243Z,997.13
2018-10-06T10:47:17.216Z,996.92
2018-10-06T10:48:17.279Z,997.08
2018-10-06T10:49:17.197Z,997.14
2018-10-06T10:50:17.188Z,997.04
2018-10-06T10:51:17.192Z,997.02
2018-10-06T10:52:17.168Z,997.12
2018-10-06T10:53:17.149Z,996.99
2018-10-06T10:54:17.147Z,997.03
2018-10-06T10:55:17.207Z,997.00
2018-10-06T10:56:17.142Z,997.00
2018-10-06T10:57:17.110Z,997.01
2018-10-06T10:58:17.105Z,997.01
2018-10-06T10:59:17.088Z,996.95
2018-10-06T11:00:17.218Z,997.03
2018-10-06T11:01:17.185Z,997.01
2018-10-06T11:02:17.060Z,997.06
2018-10-06T11:03:17.051Z,996.94
2018-10-06T11:04:17.038Z,997.06
2018-10-06T11:05:17.025Z,997.00
2018-10-06T11:06:17.046Z,997.06
2018-10-06T11:07:17.009Z,997.00
2018-10-06T11:08:17.001Z,997.03
2018-10-06T11:09:16.996Z,996.98
2018-10-06T11:10:16.974Z,997.04
2018-10-06T11:11:17.037Z,997.01
2018-10-06T11:12:16.955Z,996.97
2018-10-06T11:13:16.948Z,996.96
2018-10-06T11:14:16.941Z,996.93
2018-10-06T11:15:16.927Z,997.00
2018-10-06T11:16:16.926Z,996.95
2018-10-06T11:17:17.004Z,996.90
2018-10-06T11:18:16.898Z,996.86
2018-10-06T11:19:16.889Z,996.88
2018-10-06T11:20:16.887Z,996.88
2018-10-06T11:21:16.875Z,996.87
2018-10-06T11:22:16.918Z,996.84
2018-10-06T11:23:16.851Z,996.75
2018-10-06T11:24:16.954Z,996.74
2018-10-06T11:25:16.960Z,996.81
2018-10-06T11:26:16.854Z,996.67
2018-10-06T11:27:16.810Z,996.72
2018-10-06T11:28:16.804Z,996.72
2018-10-06T11:29:16.791Z,996.66
2018-10-06T11:30:16.777Z,996.69
2018-10-06T11:31:16.774Z,996.72
2018-10-06T11:32:16.775Z,996.69
2018-10-06T11:33:16.750Z,996.64
2018-10-06T11:34:16.739Z,996.59
2018-10-06T11:35:16.725Z,996.56
2018-10-06T11:36:16.717Z,996.55
2018-10-06T11:37:16.767Z,996.54
2018-10-06T11:38:16.890Z,996.55
2018-10-06T11:39:16.801Z,996.52
2018-10-06T11:40:16.701Z,996.54
2018-10-06T11:41:16.824Z,996.49
2018-10-06T11:42:16.768Z,996.51
2018-10-06T11:43:16.650Z,996.50
2018-10-06T11:44:16.641Z,996.46
2018-10-06T11:45:16.614Z,996.45
2018-10-06T11:46:16.612Z,996.44
2018-10-06T11:47:16.622Z,996.40
2018-10-06T11:48:16.591Z,996.11
2018-10-06T11:49:16.583Z,996.37
2018-10-06T11:50:16.657Z,996.35
2018-10-06T11:51:16.559Z,996.37
2018-10-06T11:52:16.568Z,996.41
2018-10-06T11:53:16.533Z,996.46
2018-10-06T11:54:16.531Z,996.31
2018-10-06T11:55:16.516Z,996.31
2018-10-06T11:56:16.509Z,996.32
2018-10-06T11:57:16.521Z,996.30
2018-10-06T11:58:16.480Z,996.29
2018-10-06T11:59:16.492Z,996.34
2018-10-06T12:00:16.794Z,996.40
2018-10-06T12:01:16.456Z,996.33
2018-10-06T12:02:16.464Z,996.29
2018-10-06T12:03:16.431Z,996.32
2018-10-06T12:04:16.418Z,996.29
2018-10-06T12:05:16.404Z,996.33
2018-10-06T12:06:16.422Z,996.33
2018-10-06T12:07:16.387Z,996.30
2018-10-06T12:08:16.379Z,996.25
2018-10-06T12:09:16.365Z,996.25
2018-10-06T12:10:16.359Z,996.30
2018-10-06T12:11:16.349Z,996.30
2018-10-06T12:12:16.356Z,996.24
2018-10-06T12:13:16.325Z,996.18
2018-10-06T12:14:16.314Z,996.16
2018-10-06T12:15:16.300Z,996.13
2018-10-06T12:16:16.296Z,996.16
2018-10-06T12:17:16.306Z,996.13
2018-10-06T12:18:16.273Z,996.09
2018-10-06T12:19:16.259Z,996.13
2018-10-06T12:20:16.247Z,996.06
2018-10-06T12:21:16.239Z,996.15
2018-10-06T12:22:16.247Z,996.12
2018-10-06T12:23:16.221Z,996.16
2018-10-06T12:24:16.209Z,996.14
2018-10-06T12:25:16.198Z,996.12
2018-10-06T12:26:16.184Z,996.13
2018-10-06T12:27:16.195Z,996.09
2018-10-06T12:28:16.171Z,996.03